createdAt,value
2022-08-28T00:00:41.846Z,4.90
2022-08-28T00:03:44.710Z,5.80
2022-08-28T00:06:47.345Z,4.70
2022-08-28T00:09:50.116Z,4.47
2022-08-28T00:12:55.777Z,7.25
2022-08-28T00:16:01.125Z,6.22
2022-08-28T00:19:04.656Z,6.15
2022-08-28T00:22:07.651Z,4.53
2022-08-28T00:25:11.883Z,5.22
2022-08-28T00:28:23.437Z,6.50
2022-08-28T00:31:27.070Z,4.45
2022-08-28T00:34:33.524Z,4.18
2022-08-28T00:37:36.183Z,4.43
2022-08-28T00:40:41.257Z,4.97
2022-08-28T00:43:46.187Z,5.00
2022-08-28T00:46:51.485Z,4.90
2022-08-28T00:49:55.825Z,5.45
2022-08-28T00:53:01.102Z,5.50
2022-08-28T00:56:12.886Z,8.07
2022-08-28T00:59:19.262Z,5.85
2022-08-28T01:02:22.202Z,5.05
2022-08-28T01:05:26.684Z,5.78
2022-08-28T01:08:31.275Z,4.10
2022-08-28T01:11:34.546Z,5.18
2022-08-28T01:14:40.374Z,3.92
2022-08-28T01:17:47.991Z,5.15
2022-08-28T01:21:07.038Z,7.00
2022-08-28T01:24:14.853Z,3.37
2022-08-28T01:27:17.828Z,5.07
2022-08-28T01:30:22.918Z,3.08
2022-08-28T01:33:28.224Z,3.17
2022-08-28T01:36:31.970Z,6.62
2022-08-28T01:39:34.548Z,3.50
2022-08-28T01:42:42.440Z,3.95
2022-08-28T01:45:52.812Z,3.55
2022-08-28T01:48:55.672Z,3.30
2022-08-28T01:51:58.724Z,3.40
2022-08-28T01:55:02.333Z,3.03
2022-08-28T01:58:08.531Z,3.42
2022-08-28T02:01:14.131Z,3.53
2022-08-28T02:04:17.317Z,3.25
2022-08-28T02:07:19.949Z,3.40
2022-08-28T02:10:24.710Z,3.20
2022-08-28T02:13:27.583Z,3.47
2022-08-28T02:16:30.886Z,3.22
2022-08-28T02:19:33.374Z,4.70
2022-08-28T02:22:36.559Z,3.10
2022-08-28T02:25:39.503Z,3.08
2022-08-28T02:28:42.699Z,3.20
2022-08-28T02:31:45.122Z,3.53
2022-08-28T02:34:47.990Z,5.28
2022-08-28T02:37:51.664Z,4.32
2022-08-28T02:40:57.857Z,3.90
2022-08-28T02:44:00.407Z,3.42
2022-08-28T02:47:03.857Z,3.50
2022-08-28T02:50:08.404Z,3.05
2022-08-28T02:53:11.937Z,3.45
2022-08-28T02:56:14.443Z,3.20
2022-08-28T02:59:17.200Z,3.05
2022-08-28T03:02:19.943Z,3.35
2022-08-28T03:05:24.864Z,5.75
2022-08-28T03:08:28.510Z,3.85
2022-08-28T03:11:31.872Z,3.90
2022-08-28T03:14:34.456Z,4.15
2022-08-28T03:17:38.329Z,3.42
2022-08-28T03:20:41.794Z,4.62
2022-08-28T03:23:44.605Z,3.72
2022-08-28T03:26:48.036Z,3.90
2022-08-28T03:29:50.847Z,3.37
2022-08-28T03:32:54.027Z,3.42
2022-08-28T03:35:56.860Z,5.45
2022-08-28T03:39:01.843Z,4.20
2022-08-28T03:42:04.793Z,3.47
2022-08-28T03:45:11.638Z,5.85
2022-08-28T03:48:14.476Z,4.87
2022-08-28T03:51:22.419Z,4.55
2022-08-28T03:54:32.690Z,3.53
2022-08-28T03:57:35.868Z,4.18
2022-08-28T04:00:40.473Z,3.97
2022-08-28T04:03:44.413Z,4.78
2022-08-28T04:06:47.057Z,4.35
2022-08-28T04:09:50.269Z,4.15
2022-08-28T04:12:53.692Z,4.25
2022-08-28T04:16:10.778Z,5.82
2022-08-28T04:19:13.672Z,4.45
2022-08-28T04:22:16.434Z,4.12
2022-08-28T04:25:21.842Z,3.60
2022-08-28T04:28:25.919Z,4.00
2022-08-28T04:31:31.391Z,3.75
2022-08-28T04:34:37.703Z,3.85
2022-08-28T04:37:40.683Z,5.40
2022-08-28T04:40:44.148Z,6.03
2022-08-28T04:43:47.419Z,4.65
2022-08-28T04:46:50.184Z,4.15
2022-08-28T04:49:53.155Z,4.53
2022-08-28T04:52:55.952Z,3.40
2022-08-28T04:56:00.645Z,4.62
2022-08-28T04:59:04.417Z,3.92
2022-08-28T05:02:06.989Z,4.47
2022-08-28T05:05:10.461Z,5.03
2022-08-28T05:08:14.675Z,4.72
2022-08-28T05:11:33.715Z,4.00
2022-08-28T05:14:37.716Z,3.83
2022-08-28T05:17:40.529Z,3.03
2022-08-28T05:20:46.039Z,3.28
2022-08-28T05:23:51.302Z,4.05
2022-08-28T05:26:53.820Z,3.22
2022-08-28T05:30:01.213Z,3.97
2022-08-28T05:36:08.704Z,8.35
2022-08-28T05:39:12.143Z,4.35
2022-08-28T05:42:14.956Z,5.15
2022-08-28T05:45:18.155Z,3.47
2022-08-28T05:48:21.008Z,4.05
2022-08-28T05:51:26.871Z,3.50
2022-08-28T05:54:30.420Z,3.92
2022-08-28T05:57:33.026Z,3.17
2022-08-28T06:00:35.787Z,3.28
2022-08-28T06:03:40.204Z,3.87
2022-08-28T06:06:43.554Z,3.00
2022-08-28T06:09:46.619Z,4.03
2022-08-28T06:12:49.216Z,3.00
2022-08-28T06:15:52.475Z,3.75
2022-08-28T06:18:56.006Z,3.33
2022-08-28T06:22:01.071Z,2.85
2022-08-28T06:25:14.113Z,3.12
2022-08-28T06:28:21.372Z,3.25
2022-08-28T06:31:26.468Z,2.92
2022-08-28T06:34:31.366Z,3.30
2022-08-28T06:37:33.872Z,3.15
2022-08-28T06:40:47.860Z,3.30
2022-08-28T06:43:50.374Z,2.97
2022-08-28T06:46:54.891Z,3.42
2022-08-28T06:49:57.348Z,3.10
2022-08-28T06:53:01.338Z,2.72
2022-08-28T06:56:07.682Z,4.32
2022-08-28T06:59:11.950Z,3.70
2022-08-28T07:02:14.977Z,3.72
2022-08-28T07:05:17.993Z,3.95
2022-08-28T07:08:20.536Z,3.53
2022-08-28T07:11:26.989Z,4.15
2022-08-28T07:14:29.540Z,3.97
2022-08-28T07:17:32.626Z,4.28
2022-08-28T07:20:35.102Z,2.70
2022-08-28T07:23:38.644Z,3.53
2022-08-28T07:26:42.181Z,3.00
2022-08-28T07:29:45.094Z,3.20
2022-08-28T07:32:49.760Z,3.03
2022-08-28T07:35:53.493Z,3.30
2022-08-28T07:38:57.230Z,2.92
2022-08-28T07:42:00.322Z,3.53
2022-08-28T07:45:03.795Z,3.62
2022-08-28T07:48:11.268Z,3.22
2022-08-28T07:51:14.209Z,3.90
2022-08-28T07:54:18.061Z,4.30
2022-08-28T07:57:21.248Z,3.50
2022-08-28T08:00:26.016Z,2.90
2022-08-28T08:03:30.570Z,3.22
2022-08-28T08:06:34.613Z,3.53
2022-08-28T08:09:40.459Z,3.17
2022-08-28T08:12:44.400Z,3.22
2022-08-28T08:15:47.408Z,3.42
2022-08-28T08:18:51.198Z,4.55
2022-08-28T08:21:55.034Z,4.47
2022-08-28T08:24:57.981Z,3.30
2022-08-28T08:28:00.889Z,3.90
2022-08-28T08:31:13.755Z,3.40
2022-08-28T08:34:16.666Z,2.80
2022-08-28T08:37:19.402Z,3.10
2022-08-28T08:40:22.459Z,3.12
2022-08-28T08:43:27.298Z,3.80
2022-08-28T08:46:51.160Z,3.65
2022-08-28T08:50:05.183Z,4.60
2022-08-28T08:53:48.207Z,3.05
2022-08-28T08:56:54.835Z,4.35
2022-08-28T08:59:57.979Z,3.43
2022-08-28T09:03:04.743Z,3.33
2022-08-28T09:06:20.038Z,6.20
2022-08-28T09:09:28.787Z,3.90
2022-08-28T09:12:44.037Z,2.90
2022-08-28T09:15:50.643Z,3.10
2022-08-28T09:18:56.947Z,2.78
2022-08-28T09:21:59.461Z,6.05
2022-08-28T09:25:02.332Z,3.62
2022-08-28T09:28:09.593Z,3.42
2022-08-28T09:31:31.673Z,4.37
2022-08-28T09:34:38.853Z,5.05
2022-08-28T09:41:04.311Z,3.40
2022-08-28T09:44:07.128Z,3.40
2022-08-28T09:47:09.611Z,3.60
2022-08-28T09:50:29.521Z,3.05
2022-08-28T09:53:35.961Z,3.85
2022-08-28T09:56:42.086Z,3.50
2022-08-28T09:59:44.654Z,3.37
2022-08-28T10:03:03.355Z,3.08
2022-08-28T10:06:18.618Z,3.17
2022-08-28T10:09:29.842Z,3.42
2022-08-28T10:12:43.071Z,3.00
2022-08-28T10:16:24.779Z,3.05
2022-08-28T10:19:49.955Z,4.75
2022-08-28T10:23:33.993Z,4.03
2022-08-28T10:26:54.367Z,3.22
2022-08-28T10:30:13.187Z,3.22
2022-08-28T10:33:39.824Z,5.00
2022-08-28T10:36:49.173Z,4.75
2022-08-28T10:39:57.714Z,3.50
2022-08-28T10:43:13.610Z,3.60
2022-08-28T10:46:46.116Z,3.25
2022-08-28T10:49:52.631Z,3.50
2022-08-28T10:53:03.853Z,3.43
2022-08-28T10:56:56.397Z,4.28
2022-08-28T11:00:03.760Z,3.40
2022-08-28T11:03:32.938Z,3.45
2022-08-28T11:06:48.093Z,5.90
2022-08-28T11:09:50.762Z,5.10
2022-08-28T11:12:53.626Z,3.80
2022-08-28T11:15:56.323Z,6.25
2022-08-28T11:19:21.038Z,3.25
2022-08-28T11:22:28.371Z,3.70
2022-08-28T11:25:41.644Z,3.40
2022-08-28T11:28:47.541Z,5.07
2022-08-28T11:32:28.803Z,3.37
2022-08-28T11:35:50.326Z,3.75
2022-08-28T11:38:53.572Z,5.93
2022-08-28T11:42:11.460Z,4.22
2022-08-28T11:45:46.623Z,3.17
2022-08-28T11:48:53.894Z,3.55
2022-08-28T11:52:30.509Z,2.95
2022-08-28T11:55:50.427Z,3.42
2022-08-28T11:58:59.692Z,3.03
2022-08-28T12:02:39.381Z,3.40
2022-08-28T12:05:55.740Z,3.87
2022-08-28T12:08:58.344Z,3.22
2022-08-28T12:12:22.251Z,3.85
2022-08-28T12:15:27.797Z,3.40
2022-08-28T12:18:40.435Z,3.17
2022-08-28T12:21:43.747Z,3.28
2022-08-28T12:24:49.723Z,2.92
2022-08-28T12:27:53.732Z,2.90
2022-08-28T12:31:16.143Z,3.30
2022-08-28T12:34:39.558Z,2.90
2022-08-28T12:37:58.511Z,3.33
2022-08-28T12:41:02.831Z,3.47
2022-08-28T12:44:08.982Z,2.80
2022-08-28T12:47:16.369Z,3.50
2022-08-28T12:50:33.555Z,2.83
2022-08-28T12:53:42.308Z,3.03
2022-08-28T12:56:45.203Z,3.12
2022-08-28T12:59:50.218Z,3.75
2022-08-28T13:02:55.590Z,3.08
2022-08-28T13:06:07.625Z,2.90
2022-08-28T13:09:18.416Z,4.35
2022-08-28T13:12:34.887Z,2.97
2022-08-28T13:16:00.852Z,3.22
2022-08-28T13:19:06.635Z,4.10
2022-08-28T13:22:34.896Z,3.33
2022-08-28T13:25:38.103Z,3.78
2022-08-28T13:28:43.838Z,3.28
2022-08-28T13:31:59.709Z,2.83
2022-08-28T13:35:17.759Z,2.55
2022-08-28T13:38:24.013Z,3.08
2022-08-28T13:41:29.766Z,2.80
2022-08-28T13:44:52.795Z,3.25
2022-08-28T13:47:55.613Z,2.92
2022-08-28T13:51:07.072Z,4.15
2022-08-28T13:54:13.486Z,3.15
2022-08-28T13:57:16.628Z,3.17
2022-08-28T14:00:19.661Z,3.00
2022-08-28T14:03:41.264Z,3.10
2022-08-28T14:06:44.468Z,5.07
2022-08-28T14:09:47.465Z,3.15
2022-08-28T14:12:50.044Z,3.00
2022-08-28T14:15:54.445Z,3.22
2022-08-28T14:18:59.465Z,4.12
2022-08-28T14:22:02.824Z,3.35
2022-08-28T14:25:05.972Z,3.53
2022-08-28T14:28:09.082Z,3.00
2022-08-28T14:31:14.594Z,3.25
2022-08-28T14:34:21.326Z,3.95
2022-08-28T14:37:23.820Z,2.97
2022-08-28T14:40:26.766Z,3.40
2022-08-28T14:43:30.243Z,3.22
2022-08-28T14:46:36.303Z,4.50
2022-08-28T14:49:39.388Z,3.55
2022-08-28T14:52:42.912Z,3.08
2022-08-28T14:55:48.349Z,3.33
2022-08-28T14:58:51.636Z,3.05
2022-08-28T15:02:00.010Z,3.15
2022-08-28T15:05:02.866Z,2.83
2022-08-28T15:08:09.586Z,5.25
2022-08-28T15:11:18.657Z,4.72
2022-08-28T15:14:21.352Z,3.60
2022-08-28T15:17:34.545Z,4.35
2022-08-28T15:20:43.582Z,4.60
2022-08-28T15:23:49.699Z,3.87
2022-08-28T15:26:52.933Z,3.33
2022-08-28T15:29:55.739Z,3.70
2022-08-28T15:32:58.444Z,3.22
2022-08-28T15:36:01.258Z,2.85
2022-08-28T15:39:23.930Z,2.87
2022-08-28T15:42:26.694Z,3.70
2022-08-28T15:45:37.402Z,3.15
2022-08-28T15:48:40.469Z,3.28
2022-08-28T15:51:43.218Z,3.00
2022-08-28T15:54:47.169Z,3.25
2022-08-28T15:57:50.246Z,2.97
2022-08-28T16:00:53.161Z,2.67
2022-08-28T16:03:56.081Z,3.30
2022-08-28T16:07:00.662Z,2.95
2022-08-28T16:10:07.173Z,3.72
2022-08-28T16:13:09.775Z,2.77
2022-08-28T16:16:12.900Z,2.80
2022-08-28T16:19:15.587Z,3.30
2022-08-28T16:22:19.050Z,3.80
2022-08-28T16:25:21.602Z,2.55
2022-08-28T16:28:24.544Z,3.50
2022-08-28T16:31:29.854Z,2.78
2022-08-28T16:34:33.499Z,3.08
2022-08-28T16:37:39.810Z,4.90
2022-08-28T16:40:44.861Z,2.70
2022-08-28T16:43:48.562Z,3.42
2022-08-28T16:46:52.681Z,3.53
2022-08-28T16:49:59.718Z,3.28
2022-08-28T16:53:06.323Z,3.00
2022-08-28T16:56:11.502Z,4.40
2022-08-28T16:59:20.435Z,3.25
2022-08-28T17:02:27.060Z,2.92
2022-08-28T17:05:30.104Z,2.70
2022-08-28T17:08:32.686Z,3.33
2022-08-28T17:11:35.961Z,2.72
2022-08-28T17:14:38.971Z,2.42
2022-08-28T17:17:42.932Z,3.25
2022-08-28T17:21:04.549Z,2.80
2022-08-28T17:24:09.672Z,2.60
2022-08-28T17:27:12.885Z,3.92
2022-08-28T17:30:18.203Z,2.37
2022-08-28T17:33:20.882Z,3.67
2022-08-28T17:36:33.161Z,3.08
2022-08-28T17:39:37.235Z,2.20
2022-08-28T17:42:40.639Z,3.28
2022-08-28T17:45:43.224Z,2.62
2022-08-28T17:48:53.611Z,2.83
2022-08-28T17:51:58.979Z,3.90
2022-08-28T17:55:02.406Z,2.78
2022-08-28T17:58:05.067Z,2.80
2022-08-28T18:01:07.975Z,2.78
2022-08-28T18:04:12.247Z,2.70
2022-08-28T18:07:15.238Z,2.25
2022-08-28T18:10:18.976Z,2.55
2022-08-28T18:13:21.545Z,2.20
2022-08-28T18:16:31.139Z,2.33
2022-08-28T18:19:34.260Z,2.30
2022-08-28T18:22:38.383Z,2.50
2022-08-28T18:25:50.468Z,2.55
2022-08-28T18:28:54.245Z,2.60
2022-08-28T18:31:57.250Z,2.37
2022-08-28T18:35:00.087Z,3.78
2022-08-28T18:38:03.481Z,2.58
2022-08-28T18:41:08.604Z,2.50
2022-08-28T18:44:11.720Z,2.62
2022-08-28T18:47:14.573Z,2.95
2022-08-28T18:50:17.414Z,2.75
2022-08-28T18:53:22.734Z,2.55
2022-08-28T18:56:25.243Z,3.10
2022-08-28T18:59:33.373Z,2.75
2022-08-28T19:02:40.784Z,2.17
2022-08-28T19:05:44.588Z,2.65
2022-08-28T19:08:47.098Z,3.17
2022-08-28T19:11:50.004Z,2.28
2022-08-28T19:14:57.559Z,2.53
2022-08-28T19:18:01.432Z,2.65
2022-08-28T19:21:10.150Z,2.45
2022-08-28T19:24:18.027Z,2.80
2022-08-28T19:27:20.698Z,2.83
2022-08-28T19:30:23.620Z,2.42
2022-08-28T19:33:26.348Z,2.60
2022-08-28T19:36:30.519Z,2.60
2022-08-28T19:39:33.199Z,3.47
2022-08-28T19:42:36.633Z,2.53
2022-08-28T19:45:43.707Z,2.78
2022-08-28T19:48:48.045Z,2.70
2022-08-28T19:51:51.125Z,2.87
2022-08-28T19:54:54.109Z,2.40
2022-08-28T19:57:58.392Z,2.35
2022-08-28T20:01:01.687Z,2.45
2022-08-28T20:04:06.849Z,3.17
2022-08-28T20:07:09.812Z,2.40
2022-08-28T20:10:14.698Z,2.40
2022-08-28T20:13:17.907Z,2.85
2022-08-28T20:16:21.462Z,3.22
2022-08-28T20:19:24.140Z,4.78
2022-08-28T20:22:28.088Z,2.55
2022-08-28T20:25:31.024Z,3.58
2022-08-28T20:28:33.973Z,3.33
2022-08-28T20:31:42.160Z,3.50
2022-08-28T20:34:44.973Z,2.97
2022-08-28T20:37:47.531Z,3.47
2022-08-28T20:40:51.130Z,3.17
2022-08-28T20:43:53.927Z,3.87
2022-08-28T20:46:56.781Z,3.97
2022-08-28T20:49:59.295Z,3.83
2022-08-28T20:53:03.868Z,3.72
2022-08-28T20:56:09.016Z,5.80
2022-08-28T20:59:12.707Z,3.65
2022-08-28T21:02:18.707Z,4.00
2022-08-28T21:05:21.639Z,4.15
2022-08-28T21:08:24.262Z,4.15
2022-08-28T21:11:27.683Z,5.45
2022-08-28T21:14:30.362Z,4.32
2022-08-28T21:17:33.170Z,3.90
2022-08-28T21:20:36.137Z,4.95
2022-08-28T21:23:41.281Z,4.10
2022-08-28T21:26:46.852Z,4.75
2022-08-28T21:29:49.842Z,4.53
2022-08-28T21:32:52.887Z,4.30
2022-08-28T21:35:55.834Z,4.35
2022-08-28T21:38:58.613Z,4.18
2022-08-28T21:42:01.358Z,4.43
2022-08-28T21:45:11.206Z,4.32
2022-08-28T21:48:14.987Z,6.03
2022-08-28T21:51:19.063Z,3.80
2022-08-28T21:54:23.114Z,4.57
2022-08-28T21:57:25.929Z,4.30
2022-08-28T22:00:28.711Z,4.47
2022-08-28T22:03:31.811Z,4.15
2022-08-28T22:06:34.610Z,4.47
2022-08-28T22:09:38.016Z,4.62
2022-08-28T22:12:40.634Z,5.50
2022-08-28T22:15:45.258Z,4.40
2022-08-28T22:18:47.897Z,5.22
2022-08-28T22:22:09.360Z,4.82
2022-08-28T22:25:11.998Z,6.07
2022-08-28T22:28:14.931Z,6.07
2022-08-28T22:31:17.616Z,5.30
2022-08-28T22:34:20.890Z,5.18
2022-08-28T22:37:23.694Z,4.50
2022-08-28T22:40:27.612Z,5.90
2022-08-28T22:43:30.165Z,5.87
2022-08-28T22:46:32.892Z,5.40
2022-08-28T22:49:35.950Z,7.18
2022-08-28T22:52:45.690Z,5.25
2022-08-28T22:55:48.302Z,4.95
2022-08-28T22:58:51.128Z,5.05
2022-08-28T23:01:54.612Z,5.85
2022-08-28T23:04:57.425Z,5.32
2022-08-28T23:07:59.945Z,6.10
2022-08-28T23:11:06.602Z,6.85
2022-08-28T23:14:09.282Z,5.00
2022-08-28T23:17:12.053Z,5.85
2022-08-28T23:20:17.951Z,6.20
2022-08-28T23:23:21.013Z,5.80
2022-08-28T23:26:24.887Z,6.57
2022-08-28T23:29:27.629Z,6.40
2022-08-28T23:32:30.105Z,6.68
2022-08-28T23:35:33.446Z,6.37
2022-08-28T23:38:38.432Z,6.18
2022-08-28T23:41:43.491Z,6.22
2022-08-28T23:44:45.974Z,6.43
2022-08-28T23:47:48.866Z,7.47
2022-08-28T23:50:51.383Z,5.93
2022-08-28T23:53:54.249Z,7.53
2022-08-28T23:56:56.894Z,6.57
2022-08-28T23:59:59.755Z,7.20
